Time;durP1;ratioP1;P1;durP2;ratioP2;P2;SDS_P1;SDS_P2;PMS_P1;PMS_P2;Temp;Humidity;BMP_temperature;BMP_pressure;BME280_temperature;BME280_humidity;BME280_pressure;Samples;Min_cycle;Max_cycle;Signal;HPM_P1;HPM_P2
2023/03/03 00:34:45;;;;;;;32.87;15.00;;;1.00;99.90;;;;;;4992849;28;20919;-71
2023/03/03 00:37:33;;;;;;;29.63;15.43;;;0.90;99.90;;;;;;4996615;28;20423;-71
2023/03/03 00:40:20;;;;;;;39.03;16.43;;;0.90;99.90;;;;;;4997973;28;20434;-71
2023/03/03 00:42:50;;;;;;;31.87;15.43;;;1.00;99.90;;;;;;4993329;28;20451;-71
2023/03/03 00:45:27;;;;;;;47.30;15.27;;;0.90;99.90;;;;;;4998735;28;20426;-71
2023/03/03 00:47:53;;;;;;;30.80;15.90;;;0.90;99.90;;;;;;4997428;28;20898;-71
2023/03/03 00:50:34;;;;;;;49.90;14.90;;;0.90;99.90;;;;;;4998290;28;20418;-71
2023/03/03 00:53:03;;;;;;;34.20;15.13;;;0.90;99.90;;;;;;4994580;28;20203;-71
2023/03/03 00:55:30;;;;;;;32.20;13.67;;;0.90;99.90;;;;;;4993053;28;20445;-71
2023/03/03 00:57:56;;;;;;;35.40;12.63;;;0.90;99.90;;;;;;5000478;28;20419;-72
2023/03/03 01:00:21;;;;;;;35.10;15.53;;;0.90;99.90;;;;;;4993092;28;20438;-71
2023/03/03 01:02:47;;;;;;;39.27;14.80;;;0.80;99.90;;;;;;4999189;28;20245;-72
2023/03/03 01:05:14;;;;;;;31.10;15.60;;;0.80;99.90;;;;;;4994591;28;20378;-72
2023/03/03 01:07:40;;;;;;;32.97;15.03;;;0.80;99.90;;;;;;4996741;28;20552;-72
2023/03/03 01:10:06;;;;;;;34.43;15.90;;;0.70;99.90;;;;;;4993102;28;20433;-72
2023/03/03 01:12:31;;;;;;;36.83;16.10;;;0.70;99.90;;;;;;4997264;28;20482;-72
2023/03/03 01:14:57;;;;;;;38.33;15.20;;;0.60;99.90;;;;;;4996787;28;20417;-72
2023/03/03 01:17:23;;;;;;;38.77;15.93;;;0.60;99.90;;;;;;4998234;28;21003;-72
2023/03/03 01:19:49;;;;;;;33.47;14.70;;;0.50;99.90;;;;;;4996327;28;20621;-72
2023/03/03 01:22:14;;;;;;;33.00;16.20;;;0.40;99.90;;;;;;4995808;28;20187;-72
2023/03/03 01:24:40;;;;;;;30.00;13.70;;;0.40;99.90;;;;;;4992532;28;20242;-72
2023/03/03 01:27:05;;;;;;;33.87;14.17;;;0.30;99.90;;;;;;4997522;28;20179;-72
2023/03/03 01:29:31;;;;;;;28.47;13.60;;;0.20;99.90;;;;;;4996497;28;20175;-72
2023/03/03 01:31:57;;;;;;;34.57;14.20;;;0.20;99.90;;;;;;4993517;28;20648;-71
2023/03/03 01:34:24;;;;;;;33.50;14.67;;;0.20;99.90;;;;;;4993074;28;20191;-72
2023/03/03 01:36:49;;;;;;;36.93;14.93;;;0.10;99.90;;;;;;5000592;28;20179;-71
2023/03/03 01:39:15;;;;;;;39.47;15.00;;;0.10;99.90;;;;;;4992717;28;20476;-72
2023/03/03 01:41:40;;;;;;;34.93;13.40;;;0.00;99.90;;;;;;5000779;28;20179;-72
2023/03/03 01:44:10;;;;;;;33.33;15.70;;;-0.10;99.90;;;;;;4995830;28;20211;-72
2023/03/03 01:46:57;;;;;;;29.47;14.97;;;-0.10;99.90;;;;;;4996171;28;20234;-69
2023/03/03 01:49:33;;;;;;;38.80;14.60;;;-0.20;99.90;;;;;;4997963;28;20415;-69
2023/03/03 01:52:12;;;;;;;44.00;16.70;;;-0.20;99.90;;;;;;4994343;28;20414;-69
2023/03/03 01:54:43;;;;;;;29.73;14.73;;;-0.30;99.90;;;;;;4995304;28;20427;-69
2023/03/03 01:57:16;;;;;;;32.90;15.10;;;-0.30;99.90;;;;;;4996149;28;20454;-69
2023/03/03 01:59:46;;;;;;;21.90;11.30;;;-0.30;99.90;;;;;;4988055;28;20441;-69
2023/03/03 02:02:12;;;;;;;26.83;14.30;;;-0.40;99.90;;;;;;4993990;28;20900;-69
2023/03/03 02:04:38;;;;;;;30.47;13.90;;;-0.40;99.90;;;;;;4997556;28;20521;-69
2023/03/03 02:07:09;;;;;;;31.43;14.10;;;-0.40;99.90;;;;;;4996533;28;20736;-69
2023/03/03 02:09:58;;;;;;;32.57;13.40;;;-0.50;99.90;;;;;;4991898;28;20426;-69
2023/03/03 02:12:43;;;;;;;26.67;13.20;;;-0.50;99.90;;;;;;4978302;28;20445;-69
2023/03/03 02:15:21;;;;;;;30.77;14.13;;;-0.50;99.90;;;;;;4976708;28;20411;-69
2023/03/03 02:17:50;;;;;;;36.00;15.07;;;-0.50;99.90;;;;;;4993289;28;20506;-69
2023/03/03 02:20:34;;;;;;;59.23;17.17;;;-0.60;99.90;;;;;;4996271;28;20429;-69
2023/03/03 02:23:24;;;;;;;38.03;15.30;;;-0.60;99.90;;;;;;4992403;28;20458;-70
2023/03/03 02:25:55;;;;;;;34.63;14.30;;;-0.60;99.90;;;;;;4992958;28;20415;-69
2023/03/03 02:28:27;;;;;;;38.00;15.37;;;-0.60;99.90;;;;;;4997555;28;20482;-69
2023/03/03 02:30:55;;;;;;;39.33;16.27;;;-0.60;99.90;;;;;;4994372;28;20461;-69
2023/03/03 02:33:21;;;;;;;34.57;16.77;;;-0.70;99.90;;;;;;4994729;28;20415;-69
2023/03/03 02:35:47;;;;;;;34.97;14.63;;;-0.70;99.90;;;;;;4994699;28;20827;-69
2023/03/03 02:38:27;;;;;;;51.97;17.30;;;-0.70;99.90;;;;;;4997277;28;20500;-69
2023/03/03 02:40:55;;;;;;;39.87;14.30;;;-0.80;99.90;;;;;;4996709;28;20255;-69
2023/03/03 02:43:23;;;;;;;30.30;16.00;;;-0.80;99.90;;;;;;4997659;28;20454;-69
2023/03/03 02:45:49;;;;;;;44.97;17.17;;;-0.80;99.90;;;;;;4994906;28;20419;-69
2023/03/03 10:43:19;;;;;;;33.50;13.27;;;6.40;96.70;;;;;;4988948;28;20505;-67
2023/03/03 10:46:18;;;;;;;24.17;11.40;;;6.60;96.50;;;;;;4988298;28;20427;-67
2023/03/03 10:49:02;;;;;;;35.50;12.33;;;6.80;96.00;;;;;;4987853;28;20415;-67
2023/03/03 10:52:02;;;;;;;34.53;14.33;;;6.80;96.00;;;;;;4994929;28;20855;-67
2023/03/03 10:54:56;;;;;;;40.20;13.20;;;7.00;95.70;;;;;;4991217;28;20411;-67
2023/03/03 10:57:36;;;;;;;33.10;12.77;;;7.10;95.10;;;;;;4994230;28;20935;-66
2023/03/03 11:00:21;;;;;;;38.37;14.53;;;7.10;94.80;;;;;;4991648;28;20946;-66
2023/03/03 11:02:59;;;;;;;37.13;13.13;;;7.10;94.80;;;;;;4995350;28;20417;-67
2023/03/03 11:05:50;;;;;;;33.17;13.53;;;7.10;95.00;;;;;;4991859;28;20462;-66
2023/03/03 11:08:19;;;;;;;22.77;12.93;;;7.20;95.20;;;;;;4942461;28;20497;-66
2023/03/03 11:11:23;;;;;;;36.03;13.67;;;7.20;94.70;;;;;;4996709;28;20429;-66
2023/03/03 11:14:30;;;;;;;46.97;13.27;;;7.10;95.30;;;;;;4878520;29;20906;-66
2023/03/03 11:17:16;;;;;;;31.30;12.70;;;7.10;95.20;;;;;;4969819;28;20431;-66
2023/03/03 11:19:53;;;;;;;29.13;12.93;;;7.20;94.80;;;;;;4991548;28;20422;-66
2023/03/03 11:22:45;;;;;;;30.20;11.50;;;7.30;95.20;;;;;;4992720;28;20421;-66
2023/03/03 11:25:38;;;;;;;31.10;11.87;;;7.50;95.10;;;;;;4990041;28;20565;-67
2023/03/03 11:28:29;;;;;;;34.87;14.37;;;7.60;94.60;;;;;;4987845;28;20437;-67
2023/03/03 11:31:23;;;;;;;43.73;13.87;;;7.60;93.90;;;;;;4993640;28;20427;-67
2023/03/03 11:33:52;;;;;;;26.63;12.00;;;7.60;94.50;;;;;;4982630;28;20481;-67
2023/03/03 11:36:42;;;;;;;37.33;13.83;;;7.70;94.30;;;;;;4998040;28;20450;-67
2023/03/03 11:39:16;;;;;;;34.97;13.77;;;8.00;94.00;;;;;;4994790;28;20431;-67
2023/03/03 11:42:00;;;;;;;37.30;13.40;;;8.20;93.40;;;;;;5001077;28;20452;-67
2023/03/03 11:44:32;;;;;;;29.13;12.70;;;8.10;93.40;;;;;;4992675;28;20541;-67
2023/03/03 11:47:21;;;;;;;40.20;13.30;;;8.10;93.10;;;;;;4995238;28;20490;-67
2023/03/03 11:50:03;;;;;;;20.87;10.57;;;8.40;92.80;;;;;;5000422;28;20887;-67
2023/03/03 11:53:00;;;;;;;27.53;12.30;;;8.40;92.10;;;;;;4989722;28;20414;-67
2023/03/03 11:55:38;;;;;;;22.57;10.33;;;8.50;92.60;;;;;;4990416;28;20419;-67
2023/03/03 11:58:12;;;;;;;24.20;12.57;;;8.50;92.20;;;;;;4994165;28;20410;-67
2023/03/03 12:01:05;;;;;;;26.70;10.90;;;8.50;92.10;;;;;;4993894;28;20439;-67
2023/03/03 12:03:55;;;;;;;26.40;12.03;;;8.40;92.40;;;;;;4988916;28;20513;-66
2023/03/03 12:06:29;;;;;;;24.30;10.10;;;8.50;92.00;;;;;;4995037;28;20434;-67
2023/03/03 12:09:07;;;;;;;24.90;10.73;;;8.60;91.10;;;;;;4998270;28;20407;-67
2023/03/03 12:11:45;;;;;;;23.30;10.20;;;8.60;91.50;;;;;;4988698;28;20895;-67
2023/03/03 12:14:34;;;;;;;22.93;10.67;;;8.80;90.60;;;;;;4997143;28;20423;-67
2023/03/03 12:17:05;;;;;;;22.23;9.93;;;8.70;91.10;;;;;;4997245;28;20455;-67
2023/03/03 12:19:34;;;;;;;23.43;11.50;;;8.70;91.10;;;;;;4996015;28;20450;-67
2023/03/03 12:22:20;;;;;;;24.20;10.00;;;8.80;90.20;;;;;;4998028;28;20414;-67
2023/03/03 12:25:13;;;;;;;21.77;10.87;;;8.80;90.60;;;;;;4986199;28;21001;-67
2023/03/03 12:27:44;;;;;;;24.50;10.17;;;8.80;90.50;;;;;;4995823;28;20903;-67
2023/03/03 12:30:27;;;;;;;32.87;13.50;;;8.90;90.30;;;;;;4998808;28;20497;-67
2023/03/03 12:33:17;;;;;;;25.40;10.30;;;8.70;90.60;;;;;;4991742;28;20415;-67
2023/03/03 12:35:53;;;;;;;23.30;9.43;;;8.70;91.30;;;;;;4996113;28;20509;-67
2023/03/03 12:38:39;;;;;;;23.07;10.47;;;8.70;90.90;;;;;;4998497;28;20418;-68
2023/03/03 12:41:24;;;;;;;28.40;10.53;;;8.80;90.90;;;;;;4996241;28;20919;-67
2023/03/03 12:44:13;;;;;;;36.53;12.50;;;8.80;91.10;;;;;;4995182;28;20821;-67
2023/03/03 12:46:56;;;;;;;28.43;11.50;;;8.90;90.70;;;;;;4996667;28;20422;-67
2023/03/03 12:49:30;;;;;;;26.33;11.20;;;9.00;90.50;;;;;;4998256;28;20453;-66
2023/03/03 12:52:18;;;;;;;27.90;13.63;;;9.00;90.70;;;;;;4995900;28;20534;-67
2023/03/03 12:55:05;;;;;;;26.00;10.90;;;9.20;90.80;;;;;;4996608;28;20430;-67
2023/03/03 12:57:57;;;;;;;21.33;10.60;;;9.20;89.70;;;;;;4994131;28;20785;-67
2023/03/03 13:00:26;;;;;;;23.77;9.33;;;9.20;89.70;;;;;;4993699;28;20819;-67
2023/03/03 13:03:38;;;;;;;22.70;11.37;;;9.20;90.20;;;;;;4992398;28;20410;-67
2023/03/03 13:06:26;;;;;;;25.60;11.40;;;9.20;89.70;;;;;;4974615;28;20430;-67
2023/03/03 13:09:01;;;;;;;23.87;9.97;;;9.10;90.10;;;;;;4996067;28;20476;-67
2023/03/03 13:11:41;;;;;;;29.43;12.23;;;9.40;88.70;;;;;;4995807;28;20410;-67
2023/03/03 13:14:15;;;;;;;26.10;11.13;;;9.40;88.60;;;;;;4999178;28;20949;-67
2023/03/03 13:16:51;;;;;;;21.93;10.90;;;9.20;89.60;;;;;;4992569;28;20414;-67
2023/03/03 13:19:29;;;;;;;25.27;10.67;;;9.30;89.30;;;;;;4997946;28;20435;-67
2023/03/03 13:22:01;;;;;;;23.37;11.53;;;9.10;89.10;;;;;;4995961;28;20773;-67
2023/03/03 13:24:56;;;;;;;29.03;11.27;;;9.00;89.50;;;;;;4990355;28;20506;-67
2023/03/03 13:27:26;;;;;;;21.97;10.07;;;9.20;88.60;;;;;;4994776;28;20515;-67
2023/03/03 13:30:00;;;;;;;22.73;9.77;;;9.20;88.80;;;;;;4996671;28;20799;-67
2023/03/03 13:33:00;;;;;;;24.17;10.70;;;9.10;87.20;;;;;;4992768;28;20446;-67
2023/03/03 13:35:52;;;;;;;19.87;10.47;;;8.90;89.10;;;;;;4991891;28;20423;-67
2023/03/03 13:38:24;;;;;;;20.97;9.10;;;8.90;87.80;;;;;;4994190;28;20469;-67
2023/03/03 13:41:31;;;;;;;19.50;10.40;;;8.90;87.10;;;;;;4994475;28;20461;-67
2023/03/03 13:43:59;;;;;;;21.70;10.80;;;8.80;87.60;;;;;;4989853;28;20636;-67
2023/03/03 13:46:48;;;;;;;29.07;11.43;;;8.80;87.50;;;;;;4993934;28;20468;-68
2023/03/03 13:49:14;;;;;;;21.93;10.10;;;9.00;87.30;;;;;;4994217;28;20423;-67
2023/03/03 13:51:48;;;;;;;26.40;10.73;;;9.10;86.40;;;;;;4993167;28;20430;-67
2023/03/03 13:54:36;;;;;;;25.27;9.87;;;9.20;86.40;;;;;;4994280;28;20217;-68
2023/03/03 13:57:14;;;;;;;23.27;9.80;;;9.20;86.20;;;;;;4993292;28;20423;-67
2023/03/03 13:59:45;;;;;;;22.77;10.27;;;9.10;86.90;;;;;;4993924;28;20521;-67
2023/03/03 14:02:30;;;;;;;27.80;10.73;;;9.20;86.70;;;;;;4992593;28;20438;-68
2023/03/03 14:05:25;;;;;;;24.20;10.20;;;9.10;86.80;;;;;;4992352;28;20467;-68
2023/03/03 14:07:55;;;;;;;20.07;9.43;;;9.20;86.70;;;;;;4995359;28;20469;-67
2023/03/03 14:10:30;;;;;;;26.37;9.93;;;9.00;86.10;;;;;;4993037;28;20518;-68
2023/03/03 14:13:02;;;;;;;27.67;10.97;;;8.80;86.10;;;;;;4991746;28;20450;-68
2023/03/03 14:15:30;;;;;;;33.50;9.97;;;8.90;86.60;;;;;;4991056;28;20423;-67
2023/03/03 14:18:11;;;;;;;29.43;10.10;;;8.70;86.10;;;;;;4991377;28;20429;-67
2023/03/03 14:20:42;;;;;;;21.07;10.97;;;8.70;87.00;;;;;;4993715;28;20454;-67
2023/03/03 14:23:50;;;;;;;21.17;10.07;;;8.70;86.40;;;;;;4992662;28;20462;-67
2023/03/03 14:26:16;;;;;;;33.80;10.60;;;8.70;85.90;;;;;;4972789;28;20505;-68
2023/03/03 14:28:44;;;;;;;37.23;11.40;;;8.60;87.70;;;;;;4998082;28;20445;-67
2023/03/03 14:31:38;;;;;;;18.23;9.57;;;8.70;87.60;;;;;;4992478;28;20543;-67
2023/03/03 14:34:22;;;;;;;21.47;9.77;;;8.90;86.20;;;;;;4989482;28;20412;-68
2023/03/03 14:36:52;;;;;;;35.73;11.70;;;8.90;85.90;;;;;;4997934;28;20513;-67
2023/03/03 14:39:36;;;;;;;23.03;10.33;;;8.90;87.60;;;;;;4992008;28;20419;-67
2023/03/03 14:42:12;;;;;;;25.10;10.67;;;8.80;86.80;;;;;;4991709;28;20443;-68
2023/03/03 14:44:53;;;;;;;24.80;9.53;;;8.80;87.60;;;;;;4993564;28;20472;-68
2023/03/03 14:47:22;;;;;;;24.73;11.63;;;8.80;85.90;;;;;;4993710;28;20418;-67
2023/03/03 14:49:49;;;;;;;27.27;11.07;;;8.90;85.30;;;;;;5002790;28;20464;-67
2023/03/03 14:52:15;;;;;;;20.07;10.37;;;9.00;86.60;;;;;;4995896;28;20419;-67
2023/03/03 14:54:44;;;;;;;24.73;9.93;;;8.90;84.70;;;;;;4999033;28;20418;-67
2023/03/03 14:57:44;;;;;;;18.40;9.50;;;8.90;84.40;;;;;;4997312;28;20175;-67
2023/03/03 15:00:13;;;;;;;22.93;9.43;;;8.90;85.30;;;;;;4993993;28;20840;-67
2023/03/03 15:02:51;;;;;;;19.30;8.73;;;8.80;85.90;;;;;;5001604;28;20422;-68
2023/03/03 15:05:22;;;;;;;24.40;10.37;;;8.70;85.60;;;;;;4996354;28;20549;-68
2023/03/03 15:08:03;;;;;;;17.43;9.00;;;8.80;85.10;;;;;;4989307;28;20407;-67
2023/03/03 15:10:39;;;;;;;23.60;10.70;;;8.70;85.70;;;;;;4993910;28;20526;-68
2023/03/03 15:13:19;;;;;;;25.40;9.43;;;8.50;86.70;;;;;;4995706;28;20417;-68
2023/03/03 15:16:11;;;;;;;27.87;9.77;;;8.50;86.40;;;;;;5001582;28;21173;-68
2023/03/03 15:18:53;;;;;;;22.80;10.50;;;8.40;87.60;;;;;;4992229;28;20417;-68
2023/03/03 15:21:25;;;;;;;16.60;9.63;;;8.40;87.40;;;;;;4997037;28;20418;-67
2023/03/03 15:24:06;;;;;;;23.23;9.80;;;8.50;88.20;;;;;;4995913;28;20506;-67
2023/03/03 15:26:34;;;;;;;24.80;10.43;;;8.60;86.90;;;;;;4995297;28;20926;-67
2023/03/03 15:29:24;;;;;;;22.60;9.63;;;8.50;87.00;;;;;;4999599;28;20422;-68
2023/03/03 15:32:16;;;;;;;18.90;9.10;;;8.50;87.90;;;;;;4999387;28;20417;-68
2023/03/03 15:35:03;;;;;;;22.60;10.20;;;8.40;87.20;;;;;;4990034;28;20934;-68
2023/03/03 15:37:43;;;;;;;18.40;10.13;;;8.40;87.60;;;;;;4997633;28;20465;-68
2023/03/03 15:40:29;;;;;;;17.67;8.97;;;8.40;87.30;;;;;;4997880;28;20513;-68
2023/03/03 15:43:32;;;;;;;19.60;9.30;;;8.30;87.50;;;;;;4998108;28;20430;-67
2023/03/03 15:46:20;;;;;;;38.13;9.27;;;8.20;87.80;;;;;;4935629;28;20475;-68
2023/03/03 15:48:49;;;;;;;25.63;10.80;;;8.20;88.50;;;;;;4996055;28;20403;-68
2023/03/03 15:51:33;;;;;;;22.83;9.77;;;8.10;88.10;;;;;;4998204;28;20429;-68
2023/03/03 15:54:08;;;;;;;18.47;9.57;;;8.00;88.50;;;;;;4993509;28;20411;-67
2023/03/03 15:56:57;;;;;;;26.53;10.50;;;8.00;88.30;;;;;;4995029;28;20446;-68
2023/03/03 15:59:25;;;;;;;28.50;9.70;;;7.90;88.90;;;;;;4996694;28;20439;-67
2023/03/03 16:02:19;;;;;;;27.17;12.00;;;7.80;89.60;;;;;;4977820;28;20489;-68
2023/03/03 16:05:15;;;;;;;28.93;11.03;;;7.80;89.30;;;;;;4991992;28;20455;-68
2023/03/03 16:08:05;;;;;;;31.93;11.67;;;7.80;89.10;;;;;;4995676;28;20514;-67
2023/03/03 16:10:51;;;;;;;41.73;11.93;;;7.70;89.90;;;;;;4994010;28;21035;-67
2023/03/03 16:13:48;;;;;;;21.50;9.13;;;7.80;89.10;;;;;;4993523;28;20407;-68
2023/03/03 16:16:29;;;;;;;23.60;11.30;;;7.70;90.10;;;;;;4994949;28;20418;-67
2023/03/03 16:19:10;;;;;;;18.63;9.50;;;7.60;90.00;;;;;;4999395;28;20456;-68
2023/03/03 16:21:47;;;;;;;27.60;10.33;;;7.60;90.50;;;;;;4987093;28;20411;-68
2023/03/03 16:24:33;;;;;;;32.77;12.67;;;7.50;90.30;;;;;;4994351;28;20458;-67
2023/03/03 16:27:02;;;;;;;25.47;12.07;;;7.40;90.40;;;;;;4998796;28;20422;-68
2023/03/03 16:29:39;;;;;;;30.87;13.07;;;7.30;90.60;;;;;;4989468;28;20411;-68
2023/03/03 16:32:23;;;;;;;28.50;11.30;;;7.20;91.10;;;;;;4993335;28;20493;-68
2023/03/03 16:34:59;;;;;;;22.53;10.73;;;7.10;91.20;;;;;;4996104;28;20430;-68
2023/03/03 16:38:00;;;;;;;23.80;12.17;;;7.00;91.40;;;;;;4979102;28;20786;-68
2023/03/03 16:40:37;;;;;;;25.83;12.40;;;7.00;91.80;;;;;;4994419;28;20434;-67
2023/03/03 16:43:08;;;;;;;20.40;10.30;;;6.90;91.80;;;;;;4999614;28;20476;-68
2023/03/03 16:45:37;;;;;;;27.63;10.87;;;6.90;91.90;;;;;;4992396;28;20494;-68
2023/03/03 16:48:26;;;;;;;30.53;13.63;;;6.80;92.00;;;;;;4997547;28;20429;-68
2023/03/03 16:51:13;;;;;;;30.00;13.90;;;6.70;92.20;;;;;;4993445;28;20441;-68
2023/03/03 16:53:42;;;;;;;22.73;10.10;;;6.60;92.40;;;;;;4996408;28;20419;-67
2023/03/03 16:56:32;;;;;;;26.37;11.73;;;6.60;92.50;;;;;;4995053;28;20464;-68
2023/03/03 16:59:21;;;;;;;22.10;11.00;;;6.50;92.90;;;;;;4994403;28;20453;-67
2023/03/03 17:02:14;;;;;;;28.77;11.07;;;6.30;93.20;;;;;;4994264;28;20443;-68
2023/03/03 17:04:44;;;;;;;27.77;12.57;;;6.20;93.30;;;;;;4995016;28;20458;-68
2023/03/03 17:07:43;;;;;;;28.30;12.70;;;6.10;93.60;;;;;;4998468;28;20469;-68
2023/03/03 17:10:26;;;;;;;30.73;13.13;;;6.00;93.70;;;;;;4990492;28;20415;-67
2023/03/03 17:13:18;;;;;;;34.77;11.43;;;5.80;93.90;;;;;;4991097;28;20442;-66
2023/03/03 17:16:01;;;;;;;27.33;12.37;;;5.80;94.50;;;;;;4984777;28;20510;-66
2023/03/03 17:18:46;;;;;;;31.67;11.10;;;5.60;94.40;;;;;;4991228;28;20777;-66
2023/03/03 17:21:27;;;;;;;27.67;12.53;;;5.50;94.60;;;;;;4994008;28;20558;-66
2023/03/03 17:24:05;;;;;;;30.67;12.30;;;5.50;94.90;;;;;;4996766;28;20459;-66
2023/03/03 17:26:57;;;;;;;23.40;12.10;;;5.40;94.90;;;;;;4990973;28;20438;-66
2023/03/03 17:29:43;;;;;;;28.73;10.80;;;5.30;95.00;;;;;;4948684;28;20806;-67
2023/03/03 17:32:43;;;;;;;21.53;10.30;;;5.10;95.20;;;;;;4993381;28;20419;-66
2023/03/03 17:35:37;;;;;;;29.93;11.70;;;5.00;95.40;;;;;;4998292;28;20430;-66
2023/03/03 17:38:38;;;;;;;34.73;12.10;;;4.90;95.70;;;;;;4998921;28;20908;-66
2023/03/03 17:41:20;;;;;;;26.67;11.93;;;4.80;95.80;;;;;;4993912;28;20826;-67
2023/03/03 17:44:03;;;;;;;25.47;11.60;;;4.70;96.10;;;;;;4993875;28;20422;-67
2023/03/03 17:46:48;;;;;;;35.80;13.57;;;4.60;96.20;;;;;;4992979;28;20418;-67
2023/03/03 17:49:46;;;;;;;32.20;14.37;;;4.50;96.30;;;;;;4994910;28;20748;-68
2023/03/03 17:52:39;;;;;;;33.10;12.37;;;4.40;96.70;;;;;;4990258;28;20423;-67
2023/03/03 17:55:20;;;;;;;29.00;10.57;;;4.40;96.90;;;;;;4990603;28;20482;-67
2023/03/03 17:58:17;;;;;;;27.47;12.90;;;4.20;96.90;;;;;;4993670;28;20821;-67
2023/03/03 18:01:07;;;;;;;17.30;9.73;;;4.20;97.10;;;;;;4986042;28;20463;-67
2023/03/03 18:03:38;;;;;;;35.00;13.97;;;4.10;97.40;;;;;;4986070;28;20414;-67
2023/03/03 18:06:22;;;;;;;32.43;13.97;;;4.00;97.40;;;;;;4993855;28;20438;-67
2023/03/03 18:08:47;;;;;;;31.97;14.07;;;3.90;97.50;;;;;;4993598;28;20464;-67
2023/03/03 18:11:31;;;;;;;29.30;14.17;;;3.80;97.60;;;;;;4994506;28;20447;-67
2023/03/03 18:14:24;;;;;;;32.60;13.40;;;3.80;97.80;;;;;;4994796;28;20643;-67
2023/03/03 18:17:20;;;;;;;28.30;14.03;;;3.70;97.90;;;;;;4988178;28;20413;-67
2023/03/03 18:20:15;;;;;;;29.80;12.93;;;3.60;98.40;;;;;;4987659;28;20435;-68
2023/03/03 18:22:45;;;;;;;31.10;13.87;;;3.50;98.50;;;;;;4991537;28;20456;-67
2023/03/03 18:25:14;;;;;;;40.93;15.60;;;3.40;98.90;;;;;;4992302;28;20462;-67
2023/03/03 18:27:45;;;;;;;35.53;13.90;;;3.30;98.90;;;;;;4994612;28;20415;-67
2023/03/03 18:30:23;;;;;;;37.30;14.50;;;3.30;99.10;;;;;;4997329;28;20421;-67
2023/03/03 18:32:55;;;;;;;27.07;15.17;;;3.20;99.20;;;;;;4994121;28;20769;-67
2023/03/03 18:35:32;;;;;;;28.00;12.70;;;3.10;99.30;;;;;;4994049;28;20454;-68
2023/03/03 18:38:19;;;;;;;34.03;12.93;;;3.00;99.60;;;;;;4995994;28;20415;-67
2023/03/03 18:40:48;;;;;;;33.40;13.10;;;2.90;99.60;;;;;;4994378;28;20839;-67
2023/03/03 18:43:38;;;;;;;30.90;12.60;;;2.90;99.80;;;;;;4996647;28;20469;-67
2023/03/03 18:46:05;;;;;;;27.07;11.47;;;2.80;99.90;;;;;;4995590;28;20509;-67
2023/03/03 18:49:07;;;;;;;24.10;12.83;;;2.70;99.90;;;;;;4994382;28;20979;-67
2023/03/03 18:51:39;;;;;;;26.60;13.23;;;2.70;99.90;;;;;;4989436;28;20441;-67
2023/03/03 18:54:11;;;;;;;25.97;12.07;;;2.60;99.90;;;;;;4994960;28;20410;-67
2023/03/03 18:56:45;;;;;;;34.07;14.00;;;2.50;99.90;;;;;;4991582;28;20415;-67
2023/03/03 18:59:34;;;;;;;25.40;11.60;;;2.50;99.90;;;;;;4994782;28;20433;-67
2023/03/03 19:02:12;;;;;;;30.17;13.93;;;2.50;99.90;;;;;;4981874;28;21005;-68
2023/03/03 19:04:41;;;;;;;37.60;14.70;;;2.40;99.90;;;;;;4987584;28;20458;-67
2023/03/03 19:07:16;;;;;;;31.97;14.60;;;2.40;99.90;;;;;;4995034;28;20419;-67
2023/03/03 19:09:44;;;;;;;36.03;13.27;;;2.40;99.90;;;;;;4994524;28;20421;-67
2023/03/03 19:12:12;;;;;;;33.10;15.70;;;2.40;99.90;;;;;;4995048;28;20505;-67
2023/03/03 19:14:45;;;;;;;35.10;14.00;;;2.40;99.90;;;;;;4994052;28;20411;-66
2023/03/03 19:17:16;;;;;;;48.87;18.00;;;2.40;99.90;;;;;;4996096;28;20413;-68
2023/03/03 19:20:01;;;;;;;29.10;14.10;;;2.40;99.90;;;;;;4993914;28;20509;-68
2023/03/03 19:22:29;;;;;;;37.20;16.47;;;2.40;99.90;;;;;;4990135;28;20423;-68
2023/03/03 19:25:07;;;;;;;43.37;17.23;;;2.40;99.90;;;;;;4991164;28;20558;-68
2023/03/03 19:27:44;;;;;;;40.90;16.90;;;2.40;99.90;;;;;;4994671;28;20411;-68
2023/03/03 19:30:13;;;;;;;27.97;12.93;;;2.30;99.90;;;;;;4994241;28;20434;-68
2023/03/03 19:32:59;;;;;;;38.50;17.07;;;2.30;99.90;;;;;;4995806;28;20415;-68
2023/03/03 19:35:52;;;;;;;31.83;14.97;;;2.30;99.90;;;;;;4994855;28;20767;-68
2023/03/03 19:38:32;;;;;;;33.77;14.50;;;2.30;99.90;;;;;;4981722;28;20425;-68
2023/03/03 19:41:18;;;;;;;32.23;14.90;;;2.30;99.90;;;;;;4997613;28;20442;-68
2023/03/03 19:44:23;;;;;;;43.70;17.97;;;2.10;99.90;;;;;;4994683;28;20469;-68
2023/03/03 19:46:54;;;;;;;38.07;16.47;;;2.20;99.90;;;;;;4991345;28;20415;-68
2023/03/03 19:49:20;;;;;;;31.63;16.40;;;2.30;99.90;;;;;;4981336;28;20427;-68
2023/03/03 19:52:24;;;;;;;40.43;16.60;;;2.30;99.90;;;;;;4997003;28;20411;-68
2023/03/03 19:54:53;;;;;;;35.30;16.53;;;2.30;99.90;;;;;;4990155;28;20567;-68
2023/03/03 19:58:03;;;;;;;32.20;14.13;;;2.30;99.90;;;;;;4996252;28;20419;-68
2023/03/03 20:00:37;;;;;;;51.20;19.33;;;2.20;99.90;;;;;;4987200;28;20455;-68
2023/03/03 20:03:40;;;;;;;44.00;21.23;;;2.10;99.90;;;;;;4993767;28;20774;-68
2023/03/03 20:06:11;;;;;;;64.23;20.57;;;2.00;99.90;;;;;;4998564;28;20445;-68
2023/03/03 20:08:50;;;;;;;45.67;21.27;;;1.90;99.90;;;;;;4997006;28;20458;-68
2023/03/03 20:11:27;;;;;;;55.77;20.40;;;1.90;99.90;;;;;;4995271;28;20497;-68
2023/03/03 20:13:52;;;;;;;44.90;18.77;;;1.80;99.90;;;;;;4997138;28;20393;-68
2023/03/03 20:16:39;;;;;;;40.20;18.17;;;1.70;99.90;;;;;;4996156;28;20466;-66
2023/03/03 20:19:23;;;;;;;57.00;22.37;;;1.70;99.90;;;;;;4997624;28;20182;-65
2023/03/03 20:22:07;;;;;;;61.40;23.57;;;1.70;99.90;;;;;;4997642;28;20411;-66
2023/03/03 20:25:13;;;;;;;65.93;25.30;;;1.60;99.90;;;;;;4985772;28;20811;-68
2023/03/03 20:27:53;;;;;;;51.43;22.70;;;1.60;99.90;;;;;;4882809;29;20440;-68
2023/03/03 20:30:35;;;;;;;59.40;21.17;;;1.50;99.90;;;;;;4983651;28;20437;-68
2023/03/03 20:33:22;;;;;;;52.53;22.50;;;1.50;99.90;;;;;;4997221;28;20411;-68
2023/03/03 20:36:14;;;;;;;50.07;21.47;;;1.40;99.90;;;;;;4995818;28;20497;-68
2023/03/03 20:39:03;;;;;;;55.63;21.90;;;1.40;99.90;;;;;;4991362;28;20457;-68
2023/03/03 20:41:59;;;;;;;53.67;17.07;;;1.40;99.90;;;;;;4997555;28;20492;-67
2023/03/03 20:44:46;;;;;;;50.23;17.83;;;1.30;99.90;;;;;;4981915;28;20501;-67
2023/03/03 20:47:11;;;;;;;61.93;20.33;;;1.30;99.90;;;;;;4993421;28;20489;-67
2023/03/03 20:49:49;;;;;;;51.40;21.20;;;1.20;99.90;;;;;;5000885;28;20422;-68
2023/03/03 20:52:26;;;;;;;48.63;20.10;;;1.20;99.90;;;;;;4994735;28;20186;-68
2023/03/03 20:55:10;;;;;;;44.37;17.73;;;1.10;99.90;;;;;;4989486;28;20469;-68
2023/03/03 20:57:47;;;;;;;42.90;19.53;;;1.10;99.90;;;;;;4997123;28;20422;-67
2023/03/03 21:00:16;;;;;;;46.37;18.87;;;1.10;99.90;;;;;;4994518;28;20450;-67
2023/03/03 21:03:19;;;;;;;37.37;15.80;;;1.00;99.90;;;;;;4996832;28;20588;-68
2023/03/03 21:05:59;;;;;;;33.93;15.93;;;1.00;99.90;;;;;;4965854;28;20548;-68
2023/03/03 21:08:56;;;;;;;41.63;16.00;;;1.00;99.90;;;;;;4985890;28;20415;-68
2023/03/03 21:11:31;;;;;;;35.67;16.90;;;0.90;99.90;;;;;;4996303;28;20529;-67
2023/03/03 21:13:58;;;;;;;39.10;14.67;;;0.90;99.90;;;;;;4999129;28;20410;-67
2023/03/03 21:16:23;;;;;;;38.17;16.20;;;0.90;99.90;;;;;;4992115;28;20426;-68
2023/03/03 21:19:03;;;;;;;42.27;19.17;;;0.90;99.90;;;;;;5000229;28;20418;-68
2023/03/03 21:21:31;;;;;;;37.90;18.23;;;0.90;99.90;;;;;;4986077;28;20230;-67
2023/03/03 21:23:58;;;;;;;39.37;16.73;;;0.80;99.90;;;;;;4995331;28;20415;-67
2023/03/03 21:26:43;;;;;;;42.43;17.03;;;0.90;99.90;;;;;;4992914;28;20422;-67
2023/03/03 21:29:33;;;;;;;33.20;16.63;;;0.90;99.90;;;;;;4993422;28;20826;-67
2023/03/03 21:32:03;;;;;;;41.23;17.80;;;0.90;99.90;;;;;;4997498;28;20425;-69
2023/03/03 21:34:38;;;;;;;36.53;16.27;;;0.80;99.90;;;;;;4984931;28;20987;-68
2023/03/03 21:37:14;;;;;;;38.30;17.10;;;0.70;99.90;;;;;;4992213;28;20867;-68
2023/03/03 21:39:45;;;;;;;37.60;17.57;;;0.60;99.90;;;;;;4994515;28;20422;-68
2023/03/03 21:42:13;;;;;;;39.33;16.67;;;0.60;99.90;;;;;;4994906;28;20422;-68
2023/03/03 21:44:43;;;;;;;34.67;16.43;;;0.60;99.90;;;;;;4995387;28;21008;-68
2023/03/03 21:47:12;;;;;;;36.47;16.17;;;0.60;99.90;;;;;;4993845;28;20427;-68
2023/03/03 21:49:42;;;;;;;42.30;17.73;;;0.60;99.90;;;;;;4996748;28;20428;-68
2023/03/03 21:52:09;;;;;;;30.53;14.67;;;0.50;99.90;;;;;;4992114;28;20425;-68
2023/03/03 21:54:35;;;;;;;33.60;14.63;;;0.50;99.90;;;;;;4995182;28;20502;-68
2023/03/03 21:57:01;;;;;;;42.57;18.17;;;0.50;99.90;;;;;;4993184;28;20841;-68
2023/03/03 21:59:26;;;;;;;26.60;15.53;;;0.40;99.90;;;;;;4996746;28;20190;-67
2023/03/03 22:01:52;;;;;;;51.33;17.30;;;0.40;99.90;;;;;;4990441;28;20183;-68
2023/03/03 22:04:17;;;;;;;34.47;15.73;;;0.30;99.90;;;;;;4993514;28;20195;-68
2023/03/03 22:06:43;;;;;;;39.77;16.20;;;0.30;99.90;;;;;;4992872;28;20171;-68
2023/03/03 22:09:10;;;;;;;33.83;14.20;;;0.30;99.90;;;;;;4994941;28;20198;-68